الصفحة الرئيسية
METAR-TAF:

METAR-TAF

مطار :

Győr, المجر

دائرة عرض: 47-37-28N, خط طول: 017-48-49E, ارتفاع: 129 متر

مراقبة الطقس الحالي

تاريخ ووقت الإصدار 57 دقيقة قبل الساعة 12:45UTC
ريح 8 عقدة من الغرب/الجنوب الغربي
درجة الحرارة 23°درجة مئوية
الرطوبة 73%
ضغط 1012 hPa
الرؤية 10 كم أو أكثر
غيوم قليلة على ارتفاع 3800 قدم
غيوم مفككة على ارتفاع 6400 قدم
مطر خفيف,

METAR: LHPR 201245Z AUTO 25008KT 9999 -RA FEW038 BKN064 //////TCU 23/18 Q1012 NOSIG

زمن: 15:42 (13:42 UTC)

توقعات

تاريخ ووقت الإصدار 2ساعات و 27 دقيقة قبل الساعة 11:15UTC
التوقعات صالحة من20 الساعة 12 UTC إلى 20 الساعة 21 UTC
ريح 5 عقدة من الشمال الغربي
الرؤية 10 كم أو أكثر
الغيوم لا تقل 1500 م ولا وجود لمزنة ركامية السحاب الأسود
نظرية الاحتمالات 40% :
مؤقت
من 20 الساعة 12 UTC إلى 20 الساعة 21 UTC
ريح 15 عقدةمن اتجاهات متغيرة تتزايد حتى 25 عقدة
الرؤية: 4500 متر
غيوم متفرقة على ارتفاع 4000 قدم, مزنة ركامية.
غيوم مفككة على ارتفاع 6000 قدم
عاصفة رعدية, مطر, زخات من المطر,

TAF: LHPR 201115Z 2012/2021 32005KT CAVOK PROB40 TEMPO 2012/2021 VRB15G25KT 4500 TSRA SHRA SCT040CB BKN060

أرصاد الطقس والتوقعات من أكثر من 4000 مطار (تقارير الطقس للمطار METAR والتنبؤ بالطقس بالمطارTAF).

المحطات المتاحة هي النقط الصفراء والحمراء على الخريطة.

حرك المؤشر فوق النقطة لمعرفة اسم المحطة.

ثم انقر لمعرفة أرصاد وتوقعات الطقس.

لتغيير الخارطة: اضغط على الأزرار الخضراء مع رمز الصليب الأسود للتكبير. على الزر الأخضر مع شرطة للتصغير، أو على الأسهم الخضراء للخرائط المجاورة.


METAR-TAF: